Latest Weather Observations for Kurnell

IDN60801

Issued at 11:02 pm EST Monday 29 May 2017 (issued every 30 minutes, with the page automatically refreshed every 10 minutes)

About weather observations | Map of weather stations | Latest weather observations for NSW | Other Formats
Station Details ID: 066043 Name: KURNELL AWS Lat: -34.00 Lon: 151.21 Height: 4.0 m
Data from the previous 72 hours. | See also: Recent months for locations in New South Wales
Date/Time
EST
Temp
°C
App
Temp
°C
Dew
Point
°C
Rel
Hum
%
Delta-T
°C
Wind Press
QNH
hPa
Press
MSL
hPa
Rain since
9am
mm
Dir  Spd
km/h
Gust
km/h
Spd
kts
Gust
kts
29/11:00pm - - - - - W 24 28 13 15 - - -
29/10:30pm - - - - - W 24 30 13 16 - - -
29/10:00pm - - - - - W 26 32 14 17 - - -
29/09:30pm - - - - - W 24 30 13 16 - - -
29/09:00pm - - - - - W 17 22 9 12 - - -
29/08:30pm - - - - - W 22 26 12 14 - - -
29/08:00pm - - - - - W 24 28 13 15 - - -
29/07:30pm - - - - - WSW 20 28 11 15 - - -
29/07:00pm - - - - - WSW 20 28 11 15 - - -
29/06:30pm - - - - - WSW 19 24 10 13 - - -
29/06:00pm - - - - - W 19 22 10 12 - - -
29/05:30pm - - - - - W 19 22 10 12 - - -
29/05:00pm - - - - - W 15 17 8 9 - - -
29/04:30pm - - - - - W 15 19 8 10 - - -
29/04:00pm - - - - - WSW 13 17 7 9 - - -
29/03:30pm - - - - - W 20 26 11 14 - - -
29/03:00pm - - - - - W 22 28 12 15 - - -
29/02:30pm - - - - - WSW 17 26 9 14 - - -
29/02:00pm - - - - - W 26 33 14 18 - - -
29/01:30pm - - - - - WSW 28 33 15 18 - - -
29/01:00pm - - - - - W 28 37 15 20 - - -
29/12:30pm - - - - - W 28 37 15 20 - - -
29/12:00pm - - - - - W 30 35 16 19 - - -
29/11:30am - - - - - W 32 39 17 21 - - -
29/11:00am - - - - - W 33 43 18 23 - - -
29/10:30am - - - - - W 33 39 18 21 - - -
29/10:00am - - - - - W 35 48 19 26 - - -
29/09:30am - - - - - W 32 41 17 22 - - -
29/09:00am - - - - - W 33 44 18 24 - - -
29/08:30am - - - - - W 26 37 14 20 - - -
29/08:10am - - - - - W 33 41 18 22 - - -
29/08:00am - - - - - WNW 41 50 22 27 - - -
29/07:46am - - - - - WNW 35 52 19 28 - - -
29/07:30am - - - - - W 24 33 13 18 - - -
29/07:00am - - - - - W 33 43 18 23 - - -
29/06:30am - - - - - WNW 24 30 13 16 - - -
29/06:00am - - - - - WNW 17 22 9 12 - - -
29/05:30am - - - - - WNW 26 30 14 16 - - -
29/05:00am - - - - - WNW 28 32 15 17 - - -
29/04:30am - - - - - NW 15 24 8 13 - - -
29/04:00am - - - - - NW 17 22 9 12 - - -
29/03:30am - - - - - NNW 15 19 8 10 - - -
29/03:00am - - - - - NW 28 32 15 17 - - -
29/02:30am - - - - - WNW 33 41 18 22 - - -
29/02:00am - - - - - WNW 33 39 18 21 - - -
29/01:30am - - - - - W 35 39 19 21 - - -
29/01:00am - - - - - W 30 39 16 21 - - -
29/12:30am - - - - - WSW 26 35 14 19 - - -
29/12:00am - - - - - W 20 28 11 15 - - -
 
Date/Time
EST
Temp
°C
App
Temp
°C
Dew
Point
°C
Rel
Hum
%
Delta-T
°C
Wind Press
QNH
hPa
Press
MSL
hPa
Rain since
9am
mm
Dir  Spd
km/h
Gust
km/h
Spd
kts
Gust
kts
28/11:30pm - - - - - WSW 19 28 10 15 - - -
28/11:00pm - - - - - WSW 20 28 11 15 - - -
28/10:30pm - - - - - WSW 13 17 7 9 - - -
28/10:00pm - - - - - W 17 19 9 10 - - -
28/09:30pm - - - - - W 13 17 7 9 - - -
28/09:00pm - - - - - WSW 17 22 9 12 - - -
28/08:30pm - - - - - WSW 20 26 11 14 - - -
28/08:00pm - - - - - WNW 20 24 11 13 - - -
28/07:30pm - - - - - W 22 26 12 14 - - -
28/07:00pm - - - - - WNW 26 39 14 21 - - -
28/06:47pm - - - - - W 35 52 19 28 - - -
28/06:30pm - - - - - N 26 33 14 18 - - -
28/06:00pm - - - - - N 20 28 11 15 - - -
28/05:30pm - - - - - N 20 26 11 14 - - -
28/05:00pm - - - - - N 22 28 12 15 - - -
28/04:30pm - - - - - N 30 37 16 20 - - -
28/04:00pm - - - - - N 26 32 14 17 - - -
28/03:30pm - - - - - NNW 24 30 13 16 - - -
28/03:00pm - - - - - N 24 39 13 21 - - -
28/02:30pm - - - - - NNW 28 33 15 18 - - -
28/02:00pm - - - - - N 24 33 13 18 - - -
28/01:30pm - - - - - N 28 33 15 18 - - -
28/01:00pm - - - - - N 26 33 14 18 - - -
28/12:30pm - - - - - NNW 30 35 16 19 - - -
28/12:00pm - - - - - NNW 30 39 16 21 - - -
28/11:30am - - - - - NNW 32 37 17 20 - - -
28/11:00am - - - - - NNW 32 41 17 22 - - -
28/10:30am - - - - - NNW 30 39 16 21 - - -
28/10:23am - - - - - NNW 28 39 15 21 - - -
28/10:00am - - - - - WNW 11 15 6 8 - - -
28/09:30am - - - - - NW 15 17 8 9 - - -
28/09:00am - - - - - NNW 17 19 9 10 - - -
28/08:30am - - - - - NW 17 19 9 10 - - -
28/08:00am - - - - - WNW 17 20 9 11 - - -
28/07:30am - - - - - WNW 17 20 9 11 - - -
28/07:00am - - - - - NW 17 20 9 11 - - -
28/06:30am - - - - - NW 15 17 8 9 - - -
28/06:00am - - - - - NNW 13 17 7 9 - - -
28/05:30am - - - - - NNW 13 15 7 8 - - -
28/05:00am - - - - - NNW 13 17 7 9 - - -
28/04:30am - - - - - NNW 11 15 6 8 - - -
28/04:00am - - - - - NNW 13 15 7 8 - - -
28/03:30am - - - - - NW 13 15 7 8 - - -
28/03:00am - - - - - WNW 15 19 8 10 - - -
28/02:30am - - - - - NW 13 13 7 7 - - -
28/02:00am - - - - - NW 13 15 7 8 - - -
28/01:30am - - - - - NW 13 15 7 8 - - -
28/01:00am - - - - - NNW 11 15 6 8 - - -
28/12:30am - - - - - NNW 13 17 7 9 - - -
28/12:00am - - - - - NNW 15 17 8 9 - - -
 
Date/Time
EST
Temp
°C
App
Temp
°C
Dew
Point
°C
Rel
Hum
%
Delta-T
°C
Wind Press
QNH
hPa
Press
MSL
hPa
Rain since
9am
mm
Dir  Spd
km/h
Gust
km/h
Spd
kts
Gust
kts
27/11:30pm - - - - - N 15 19 8 10 - - -
27/11:00pm - - - - - N 15 17 8 9 - - -
27/10:30pm - - - - - N 11 13 6 7 - - -
27/10:00pm - - - - - N 15 19 8 10 - - -
27/09:30pm - - - - - NNE 17 24 9 13 - - -
27/09:00pm - - - - - NNE 13 15 7 8 - - -
27/08:30pm - - - - - N 15 17 8 9 - - -
27/08:00pm - - - - - NNE 19 26 10 14 - - -
27/07:30pm - - - - - N 13 15 7 8 - - -
27/07:00pm - - - - - NNE 15 19 8 10 - - -
27/06:30pm - - - - - NNE 17 19 9 10 - - -
27/06:00pm - - - - - NNE 19 22 10 12 - - -
27/05:30pm - - - - - NNE 19 22 10 12 - - -
27/05:00pm - - - - - NE 20 24 11 13 - - -
27/04:30pm - - - - - NE 22 26 12 14 - - -
27/04:00pm - - - - - NE 20 26 11 14 - - -
27/03:30pm - - - - - NE 22 26 12 14 - - -
27/03:00pm - - - - - ENE 20 26 11 14 - - -
27/02:30pm - - - - - ENE 15 19 8 10 - - -
27/02:00pm - - - - - ENE 13 15 7 8 - - -
27/01:30pm - - - - - ENE 11 13 6 7 - - -
27/01:00pm - - - - - NE 7 9 4 5 - - -
27/12:30pm - - - - - NNW 6 7 3 4 - - -
27/12:00pm - - - - - NW 7 9 4 5 - - -
27/11:30am - - - - - NW 9 11 5 6 - - -
27/11:00am - - - - - WNW 11 13 6 7 - - -
27/10:30am - - - - - NNW 13 15 7 8 - - -
27/10:00am - - - - - NNW 13 15 7 8 - - -
27/09:30am - - - - - NW 11 15 6 8 - - -
27/09:00am - - - - - WNW 11 13 6 7 - - -
27/08:30am - - - - - NW 11 13 6 7 - - -
27/08:00am - - - - - WNW 11 13 6 7 - - -
27/07:30am - - - - - NW 13 17 7 9 - - -
27/07:00am - - - - - NW 13 17 7 9 - - -
27/06:30am - - - - - NNW 11 13 6 7 - - -
27/06:00am - - - - - NW 11 13 6 7 - - -
27/05:30am - - - - - NNW 11 13 6 7 - - -
27/05:00am - - - - - NW 11 13 6 7 - - -
27/04:30am - - - - - NW 9 11 5 6 - - -
27/04:00am - - - - - NW 11 13 6 7 - - -
27/03:30am - - - - - NNW 9 13 5 7 - - -
27/03:00am - - - - - NNW 9 13 5 7 - - -
27/02:30am - - - - - NNW 11 15 6 8 - - -
27/02:00am - - - - - NNW 11 15 6 8 - - -
27/01:30am - - - - - NNW 13 15 7 8 - - -
27/01:00am - - - - - NW 13 17 7 9 - - -
27/12:30am - - - - - N 7 13 4 7 - - -
27/12:00am - - - - - SSE 11 17 6 9 - - -
 
Date/Time
EST
Temp
°C
App
Temp
°C
Dew
Point
°C
Rel
Hum
%
Delta-T
°C
Wind Press
QNH
hPa
Press
MSL
hPa
Rain since
9am
mm
Dir  Spd
km/h
Gust
km/h
Spd
kts
Gust
kts
26/11:30pm - - - - - SE 9 11 5 6 - - -

Other Formats:

Comma delimited format used in spreadsheet applications
http://www.bom.gov.au/fwo/IDN60801/IDN60801.95756.axf

JavaScript Object Notation format (JSON) in row-major order
http://www.bom.gov.au/fwo/IDN60801/IDN60801.95756.json